Time;durP1;ratioP1;P1;durP2;ratioP2;P2;SDS_P1;SDS_P2;PMS_P1;PMS_P2;Temp;Humidity;BMP_temperature;BMP_pressure;BME280_temperature;BME280_humidity;BME280_pressure;Samples;Min_cycle;Max_cycle;Signal;HPM_P1;HPM_P2
2023/10/06 00:00:40;;;;;;;4.03;3.67;;;;;;;;;;6240322;23;20039;-71
2023/10/06 00:03:10;;;;;;;8.48;4.47;;;;;;;;;;6240533;23;20050;-71
2023/10/06 00:05:38;;;;;;;4.18;3.78;;;;;;;;;;6215600;23;20012;-70
2023/10/06 00:08:17;;;;;;;6.85;4.68;;;;;;;;;;6242180;23;20099;-70
2023/10/06 00:10:51;;;;;;;11.05;4.15;;;;;;;;;;6241967;23;20031;-72
2023/10/06 00:13:28;;;;;;;7.07;4.40;;;;;;;;;;6191316;23;20098;-71
2023/10/06 00:15:55;;;;;;;6.75;4.72;;;;;;;;;;6242317;23;20020;-71
2023/10/06 00:18:27;;;;;;;7.15;4.60;;;;;;;;;;6242987;23;20036;-70
2023/10/06 00:20:57;;;;;;;8.40;4.57;;;;;;;;;;6217917;23;20413;-71
2023/10/06 00:23:27;;;;;;;6.28;4.78;;;;;;;;;;6243665;23;20012;-69
2023/10/06 00:25:54;;;;;;;5.72;3.83;;;;;;;;;;6244600;23;20016;-69
2023/10/06 00:28:25;;;;;;;8.68;5.03;;;;;;;;;;6241819;23;20008;-70
2023/10/06 00:31:02;;;;;;;8.80;4.60;;;;;;;;;;6242869;23;20107;-70
2023/10/06 00:33:37;;;;;;;9.73;4.18;;;;;;;;;;6242236;23;20013;-71
2023/10/06 00:36:13;;;;;;;7.45;3.90;;;;;;;;;;6191958;23;20158;-69
2023/10/06 00:38:42;;;;;;;7.65;4.35;;;;;;;;;;6242007;23;20008;-70
2023/10/06 00:41:09;;;;;;;12.60;5.40;;;;;;;;;;6241506;23;20047;-71
2023/10/06 00:43:36;;;;;;;6.47;4.20;;;;;;;;;;6241909;23;20016;-71
2023/10/06 00:46:07;;;;;;;9.02;4.75;;;;;;;;;;6214939;23;20031;-71
2023/10/06 00:48:39;;;;;;;8.40;4.77;;;;;;;;;;6215819;23;20365;-71
2023/10/06 00:51:19;;;;;;;4.85;3.35;;;;;;;;;;6242626;23;20020;-70
2023/10/06 00:53:51;;;;;;;9.50;4.70;;;;;;;;;;6242803;23;20012;-71
2023/10/06 00:56:18;;;;;;;7.18;4.63;;;;;;;;;;6242594;23;20026;-70
2023/10/06 00:58:44;;;;;;;5.88;4.35;;;;;;;;;;6244412;23;20012;-71
2023/10/06 01:01:12;;;;;;;7.57;4.72;;;;;;;;;;6216914;23;20020;-71
2023/10/06 01:03:44;;;;;;;11.10;3.75;;;;;;;;;;6242771;23;20012;-70
2023/10/06 01:06:15;;;;;;;4.90;4.18;;;;;;;;;;6241815;23;20023;-70
2023/10/06 01:08:45;;;;;;;7.65;4.45;;;;;;;;;;6243855;23;20019;-71
2023/10/06 01:11:16;;;;;;;8.65;4.20;;;;;;;;;;6241519;23;20569;-69
2023/10/06 01:13:58;;;;;;;9.00;4.38;;;;;;;;;;6243744;23;20012;-70
2023/10/06 01:16:26;;;;;;;6.78;5.03;;;;;;;;;;6241957;23;20019;-70
2023/10/06 01:19:01;;;;;;;5.10;4.60;;;;;;;;;;6243867;23;20123;-71
2023/10/06 01:21:30;;;;;;;9.20;4.45;;;;;;;;;;6218425;23;20018;-71
2023/10/06 01:23:58;;;;;;;5.68;3.97;;;;;;;;;;6242260;23;20395;-71
2023/10/06 01:26:24;;;;;;;7.75;4.65;;;;;;;;;;6243293;23;20016;-71
2023/10/06 01:28:51;;;;;;;4.35;3.80;;;;;;;;;;6243718;23;20012;-69
2023/10/06 01:31:19;;;;;;;5.60;4.82;;;;;;;;;;6243064;23;20342;-70
2023/10/06 01:33:45;;;;;;;10.00;4.88;;;;;;;;;;6243720;23;20460;-70
2023/10/06 01:36:15;;;;;;;7.70;4.15;;;;;;;;;;6243099;23;20020;-72
2023/10/06 01:38:43;;;;;;;9.37;4.63;;;;;;;;;;6241783;23;20016;-70
2023/10/06 01:41:10;;;;;;;5.70;3.78;;;;;;;;;;6242062;23;20019;-71
2023/10/06 01:43:38;;;;;;;7.65;3.90;;;;;;;;;;6243460;23;20059;-69
2023/10/06 01:46:07;;;;;;;4.05;3.65;;;;;;;;;;6243245;23;20020;-69
2023/10/06 01:48:33;;;;;;;7.22;4.43;;;;;;;;;;6242974;23;20023;-70
2023/10/06 01:51:00;;;;;;;6.05;4.78;;;;;;;;;;6243556;23;20046;-70
2023/10/06 01:53:32;;;;;;;7.80;5.20;;;;;;;;;;6242953;23;20012;-71
2023/10/06 01:56:01;;;;;;;7.90;4.68;;;;;;;;;;6216773;23;20074;-71
2023/10/06 01:58:27;;;;;;;9.60;4.97;;;;;;;;;;6241540;23;20032;-70
2023/10/06 02:00:53;;;;;;;5.30;3.85;;;;;;;;;;6242526;23;20058;-70
2023/10/06 02:03:21;;;;;;;7.40;4.70;;;;;;;;;;6241462;23;20012;-70
2023/10/06 02:05:47;;;;;;;13.18;5.05;;;;;;;;;;6241695;23;20445;-70
2023/10/06 02:08:23;;;;;;;7.07;4.47;;;;;;;;;;6241438;23;20019;-70
2023/10/06 02:10:51;;;;;;;9.70;5.63;;;;;;;;;;6242961;23;20399;-71
2023/10/06 02:13:21;;;;;;;9.90;4.68;;;;;;;;;;6243107;23;20023;-72
2023/10/06 02:15:58;;;;;;;6.55;4.93;;;;;;;;;;6217767;23;20079;-71
2023/10/06 02:18:35;;;;;;;5.70;4.60;;;;;;;;;;6243268;23;20016;-72
2023/10/06 02:21:12;;;;;;;9.98;5.32;;;;;;;;;;6241677;23;20024;-72
2023/10/06 02:23:38;;;;;;;10.43;4.40;;;;;;;;;;6217160;23;20100;-72
2023/10/06 02:26:09;;;;;;;8.55;5.25;;;;;;;;;;6241254;23;20436;-73
2023/10/06 02:28:40;;;;;;;7.82;4.47;;;;;;;;;;6241305;23;20015;-72
2023/10/06 02:31:07;;;;;;;6.95;3.67;;;;;;;;;;6242832;23;20024;-70
2023/10/06 02:33:36;;;;;;;8.65;4.63;;;;;;;;;;6242660;23;20028;-70
2023/10/06 02:36:15;;;;;;;8.85;5.45;;;;;;;;;;6242941;23;20019;-70
2023/10/06 02:38:46;;;;;;;7.30;4.90;;;;;;;;;;6242617;23;20008;-70
2023/10/06 02:41:18;;;;;;;9.38;5.03;;;;;;;;;;6241301;23;20396;-71
2023/10/06 02:43:47;;;;;;;6.35;4.82;;;;;;;;;;6215883;23;20016;-71
2023/10/06 02:46:15;;;;;;;9.32;3.92;;;;;;;;;;6242863;23;20043;-72
2023/10/06 02:48:48;;;;;;;10.32;5.53;;;;;;;;;;6242801;23;20098;-70
2023/10/06 02:51:18;;;;;;;11.13;6.25;;;;;;;;;;6242143;23;20112;-71
2023/10/06 02:53:49;;;;;;;8.30;5.38;;;;;;;;;;6215836;23;20016;-72
2023/10/06 02:56:16;;;;;;;;;;;;;;;;;;6242791;23;20015;-68
2023/10/06 02:58:42;;;;;;;10.52;6.53;;;;;;;;;;6242807;23;19907;-71
2023/10/06 03:01:11;;;;;;;9.77;6.10;;;;;;;;;;6215930;23;20016;-70
2023/10/06 03:03:37;;;;;;;12.15;6.47;;;;;;;;;;6242573;23;20027;-70
2023/10/06 03:06:07;;;;;;;7.45;6.22;;;;;;;;;;6242532;23;20472;-71
2023/10/06 03:08:35;;;;;;;7.57;5.40;;;;;;;;;;6240737;23;20500;-70
2023/10/06 03:11:01;;;;;;;13.02;6.30;;;;;;;;;;6241006;23;20031;-70
2023/10/06 03:13:35;;;;;;;8.85;6.05;;;;;;;;;;6240599;23;20016;-71
2023/10/06 03:16:10;;;;;;;7.28;5.65;;;;;;;;;;6241552;23;20012;-78
2023/10/06 03:18:36;;;;;;;10.57;5.50;;;;;;;;;;6215957;23;20039;-78
2023/10/06 03:23:44;;;;;;;9.75;5.22;;;;;;;;;;6242673;23;20020;-79
2023/10/06 03:26:45;;;;;;;6.82;5.35;;;;;;;;;;6222953;23;20067;-81
2023/10/06 03:29:11;;;;;;;6.68;5.00;;;;;;;;;;6245407;23;20027;-81
2023/10/06 03:31:46;;;;;;;8.30;5.70;;;;;;;;;;6251998;23;20408;-80
2023/10/06 03:34:20;;;;;;;10.77;4.97;;;;;;;;;;6246965;23;20015;-81
2023/10/06 03:36:51;;;;;;;8.52;5.65;;;;;;;;;;6217064;23;20012;-79
2023/10/06 03:39:23;;;;;;;7.97;5.38;;;;;;;;;;6241144;23;20012;-81
2023/10/06 03:41:55;;;;;;;8.07;5.07;;;;;;;;;;6193423;23;20020;-79
2023/10/06 03:44:29;;;;;;;5.93;5.38;;;;;;;;;;6241931;23;20020;-81
2023/10/06 03:47:00;;;;;;;7.38;4.95;;;;;;;;;;6217069;23;20510;-81
2023/10/06 03:49:26;;;;;;;7.53;5.47;;;;;;;;;;6220236;23;20048;-81
2023/10/06 03:51:55;;;;;;;8.27;6.13;;;;;;;;;;6194723;23;20047;-80
2023/10/06 03:54:23;;;;;;;9.00;5.60;;;;;;;;;;6242150;23;20036;-80
2023/10/06 03:56:50;;;;;;;6.55;4.90;;;;;;;;;;6217029;23;20039;-80
2023/10/06 03:59:16;;;;;;;7.88;5.50;;;;;;;;;;6241296;23;20008;-80
2023/10/06 04:01:44;;;;;;;6.25;4.57;;;;;;;;;;6243420;23;20023;-81
2023/10/06 04:04:13;;;;;;;11.48;6.13;;;;;;;;;;6243195;23;20008;-79
2023/10/06 04:06:39;;;;;;;10.00;5.50;;;;;;;;;;6243322;23;20446;-80
2023/10/06 04:09:05;;;;;;;4.93;3.80;;;;;;;;;;6243446;23;20016;-80
2023/10/06 04:11:31;;;;;;;7.53;5.30;;;;;;;;;;6245256;23;20472;-81
2023/10/06 04:13:58;;;;;;;6.13;4.68;;;;;;;;;;6202219;23;20016;-82
2023/10/06 04:16:25;;;;;;;11.40;5.93;;;;;;;;;;6259663;23;20004;-82
2023/10/06 04:18:51;;;;;;;4.15;3.75;;;;;;;;;;6236852;23;20030;-81
2023/10/06 04:21:17;;;;;;;7.00;6.30;;;;;;;;;;6259115;23;20008;-83
2023/10/06 04:23:43;;;;;;;9.10;6.43;;;;;;;;;;6250192;23;20677;-80
2023/10/06 04:26:10;;;;;;;6.55;5.32;;;;;;;;;;6247354;23;20008;-81
2023/10/06 04:28:36;;;;;;;8.05;6.15;;;;;;;;;;6249973;23;20016;-81
2023/10/06 04:31:02;;;;;;;6.90;4.70;;;;;;;;;;6203415;23;20027;-81
2023/10/06 04:33:28;;;;;;;8.75;5.70;;;;;;;;;;6255630;23;20012;-81
2023/10/06 04:36:07;;;;;;;17.80;6.28;;;;;;;;;;6252586;23;20023;-81
2023/10/06 04:38:37;;;;;;;7.30;5.95;;;;;;;;;;6177409;23;20058;-81
2023/10/06 04:41:06;;;;;;;6.10;4.53;;;;;;;;;;6250080;23;20016;-82
2023/10/06 04:43:32;;;;;;;6.47;5.45;;;;;;;;;;6257267;23;20012;-81
2023/10/06 04:45:59;;;;;;;10.77;7.18;;;;;;;;;;6205296;23;20177;-81
2023/10/06 04:48:25;;;;;;;6.47;5.78;;;;;;;;;;6234213;23;20016;-80
2023/10/06 04:50:51;;;;;;;6.85;5.88;;;;;;;;;;6233615;23;20031;-80
2023/10/06 04:53:18;;;;;;;7.07;5.57;;;;;;;;;;6212739;23;20019;-82
2023/10/06 04:55:43;;;;;;;9.27;5.32;;;;;;;;;;6253387;23;20052;-81
2023/10/06 04:58:11;;;;;;;9.75;4.93;;;;;;;;;;6197226;23;20592;-80
2023/10/06 05:00:37;;;;;;;12.88;5.97;;;;;;;;;;6255527;23;20384;-82
2023/10/06 05:03:06;;;;;;;7.18;4.68;;;;;;;;;;6250241;23;20363;-81
2023/10/06 05:05:37;;;;;;;10.05;6.60;;;;;;;;;;6173346;23;20357;-81
2023/10/06 05:08:04;;;;;;;8.68;5.32;;;;;;;;;;6251382;23;20012;-81
2023/10/06 05:10:31;;;;;;;7.22;5.35;;;;;;;;;;6249654;23;20022;-81
2023/10/06 05:12:59;;;;;;;7.40;5.65;;;;;;;;;;6249217;23;20111;-82
2023/10/06 05:15:30;;;;;;;8.25;5.97;;;;;;;;;;6228763;23;20064;-82
2023/10/06 05:17:56;;;;;;;7.63;5.50;;;;;;;;;;6232856;23;20023;-82
2023/10/06 05:20:23;;;;;;;6.90;5.20;;;;;;;;;;6231089;23;20014;-83
2023/10/06 05:22:50;;;;;;;9.90;6.35;;;;;;;;;;6258352;23;20618;-81
2023/10/06 05:25:19;;;;;;;9.52;5.55;;;;;;;;;;6228647;23;20038;-81
2023/10/06 05:27:50;;;;;;;9.70;5.13;;;;;;;;;;6225192;23;20038;-81
2023/10/06 05:30:17;;;;;;;;;;;;;;;;;;6248867;23;20044;-81
2023/10/06 05:32:43;;;;;;;9.00;4.97;;;;;;;;;;6257991;23;19931;-81
2023/10/06 05:35:10;;;;;;;10.38;5.75;;;;;;;;;;6259262;23;20016;-82
2023/10/06 05:37:36;;;;;;;13.60;5.68;;;;;;;;;;6233918;23;20011;-83
2023/10/06 05:40:03;;;;;;;18.77;5.07;;;;;;;;;;6260127;23;20008;-83
2023/10/06 05:42:29;;;;;;;9.70;5.63;;;;;;;;;;6238772;23;20398;-83
2023/10/06 05:44:55;;;;;;;12.63;5.50;;;;;;;;;;6263474;23;20039;-84
2023/10/06 05:47:23;;;;;;;15.25;5.13;;;;;;;;;;6265467;23;20027;-82
2023/10/06 05:49:49;;;;;;;13.40;4.97;;;;;;;;;;6217085;23;20012;-80
2023/10/06 05:52:16;;;;;;;8.82;5.00;;;;;;;;;;6241500;23;20047;-79
2023/10/06 05:54:42;;;;;;;11.40;4.85;;;;;;;;;;6191372;23;20016;-80
2023/10/06 05:57:09;;;;;;;7.63;5.20;;;;;;;;;;6242222;23;20035;-79
2023/10/06 05:59:36;;;;;;;6.97;4.78;;;;;;;;;;6219240;23;20468;-79
2023/10/06 06:02:04;;;;;;;6.47;4.88;;;;;;;;;;6217435;23;20012;-79
2023/10/06 06:04:30;;;;;;;6.47;3.55;;;;;;;;;;6241910;23;20012;-80
2023/10/06 06:06:57;;;;;;;6.15;4.95;;;;;;;;;;6192935;23;20012;-80
2023/10/06 06:09:27;;;;;;;8.95;5.00;;;;;;;;;;6244397;23;20083;-81
2023/10/06 06:11:53;;;;;;;8.48;6.18;;;;;;;;;;6246187;23;20507;-81
2023/10/06 06:14:21;;;;;;;7.78;4.78;;;;;;;;;;6246295;23;20012;-79
2023/10/06 06:16:48;;;;;;;12.35;5.60;;;;;;;;;;6221652;23;20012;-80
2023/10/06 06:19:14;;;;;;;5.72;4.60;;;;;;;;;;6244431;23;20019;-81
2023/10/06 06:21:40;;;;;;;8.90;5.70;;;;;;;;;;6218930;23;20087;-76
2023/10/06 06:24:06;;;;;;;6.55;5.28;;;;;;;;;;6243652;23;20019;-81
2023/10/06 06:26:33;;;;;;;12.00;5.20;;;;;;;;;;6236977;23;20026;-83
2023/10/06 06:29:02;;;;;;;5.07;4.55;;;;;;;;;;6233889;23;20008;-82
2023/10/06 06:31:34;;;;;;;7.57;4.88;;;;;;;;;;6236051;23;20008;-84
2023/10/06 06:34:09;;;;;;;9.65;4.97;;;;;;;;;;6235383;23;20087;-80
2023/10/06 06:36:36;;;;;;;8.30;4.68;;;;;;;;;;6222656;23;20019;-79
2023/10/06 06:39:03;;;;;;;6.70;5.35;;;;;;;;;;6241191;23;20008;-78
2023/10/06 06:41:30;;;;;;;8.93;4.13;;;;;;;;;;6240713;23;20040;-79
2023/10/06 06:43:59;;;;;;;5.18;4.40;;;;;;;;;;6241461;23;20016;-78
2023/10/06 06:46:26;;;;;;;7.13;4.70;;;;;;;;;;6214720;23;20436;-76
2023/10/06 06:48:52;;;;;;;9.43;4.18;;;;;;;;;;6242074;23;20019;-76
2023/10/06 06:51:19;;;;;;;5.03;4.40;;;;;;;;;;6242737;22;20024;-72
2023/10/06 07:04:57;;;;;;;4.28;3.85;;;;;;;;;;6216611;23;20322;-81
2023/10/06 07:07:24;;;;;;;6.72;5.05;;;;;;;;;;6244771;23;20012;-81
2023/10/06 07:10:20;;;;;;;6.43;4.28;;;;;;;;;;6219558;23;20020;-80
2023/10/06 07:27:03;;;;;;;3.97;3.60;;;;;;;;;;6182470;23;20026;-82
2023/10/06 07:29:31;;;;;;;4.50;3.65;;;;;;;;;;6247726;23;20015;-81
2023/10/06 07:32:00;;;;;;;5.47;4.22;;;;;;;;;;6245870;23;20035;-82
2023/10/06 07:34:50;;;;;;;12.07;4.25;;;;;;;;;;6244207;23;20008;-82
2023/10/06 07:37:18;;;;;;;3.95;3.33;;;;;;;;;;6222598;23;20533;-82
2023/10/06 07:39:46;;;;;;;5.82;4.03;;;;;;;;;;6251016;23;20008;-83
2023/10/06 07:45:52;;;;;;;5.03;3.33;;;;;;;;;;6235643;23;20452;-82
2023/10/06 07:48:20;;;;;;;6.80;3.20;;;;;;;;;;6224043;23;20075;-82
2023/10/06 07:51:16;;;;;;;4.00;3.03;;;;;;;;;;6224521;23;20016;-81
2023/10/06 07:53:45;;;;;;;4.25;3.47;;;;;;;;;;6248041;23;20032;-81
2023/10/06 07:56:14;;;;;;;4.57;3.63;;;;;;;;;;6247632;23;20030;-82
2023/10/06 07:58:41;;;;;;;5.40;4.28;;;;;;;;;;6245307;23;20071;-79
2023/10/06 08:01:09;;;;;;;5.35;3.50;;;;;;;;;;6247523;23;20360;-82
2023/10/06 08:04:07;;;;;;;5.97;2.83;;;;;;;;;;6247462;23;20044;-82
2023/10/06 08:06:36;;;;;;;4.32;3.22;;;;;;;;;;6248078;23;20107;-84
2023/10/06 08:09:06;;;;;;;3.72;3.40;;;;;;;;;;6249518;22;20028;-83
2023/10/06 08:11:33;;;;;;;4.50;3.33;;;;;;;;;;6253872;23;20024;-82
2023/10/06 08:14:03;;;;;;;4.38;3.00;;;;;;;;;;6252158;22;20483;-81
2023/10/06 08:33:50;;;;;;;3.38;3.08;;;;;;;;;;6228350;23;20530;-82
2023/10/06 08:39:50;;;;;;;5.05;3.30;;;;;;;;;;6187221;23;20024;-82
2023/10/06 08:42:20;;;;;;;5.07;3.10;;;;;;;;;;6247286;23;20024;-82
2023/10/06 08:44:48;;;;;;;6.97;2.80;;;;;;;;;;6250961;23;20027;-81
2023/10/06 08:47:16;;;;;;;3.88;2.97;;;;;;;;;;6180819;23;20029;-81
2023/10/06 08:50:22;;;;;;;3.65;3.00;;;;;;;;;;6227018;23;20024;-81
2023/10/06 08:52:51;;;;;;;4.50;3.47;;;;;;;;;;6252229;23;20052;-82
2023/10/06 08:55:19;;;;;;;4.10;3.20;;;;;;;;;;6227048;23;20432;-84
2023/10/06 08:58:26;;;;;;;7.40;3.35;;;;;;;;;;6251466;22;20028;-81
2023/10/06 09:00:56;;;;;;;5.10;3.28;;;;;;;;;;6235090;23;20111;-82
2023/10/06 09:03:24;;;;;;;3.67;3.35;;;;;;;;;;6202935;23;20020;-82
2023/10/06 09:05:54;;;;;;;3.72;2.95;;;;;;;;;;6226271;23;20040;-82
2023/10/06 09:08:24;;;;;;;2.95;2.67;;;;;;;;;;6228208;23;20100;-82
2023/10/06 09:10:55;;;;;;;3.20;2.95;;;;;;;;;;6230604;23;20019;-82
2023/10/06 09:13:23;;;;;;;3.92;3.15;;;;;;;;;;6231638;23;20032;-82
2023/10/06 09:16:02;;;;;;;3.35;3.00;;;;;;;;;;6230094;23;20024;-80
2023/10/06 09:18:34;;;;;;;3.35;2.92;;;;;;;;;;6224538;23;20035;-83
2023/10/06 09:41:47;;;;;;;2.65;2.45;;;;;;;;;;6224964;23;20020;-82
2023/10/06 09:44:17;;;;;;;4.78;4.35;;;;;;;;;;6254599;23;20077;-83
2023/10/06 09:49:47;;;;;;;1.80;1.70;;;;;;;;;;6250350;23;19950;-82
2023/10/06 09:52:16;;;;;;;5.05;2.20;;;;;;;;;;6201815;23;20480;-82
2023/10/06 09:54:44;;;;;;;3.60;2.42;;;;;;;;;;6226008;23;20142;-82
2023/10/06 09:57:12;;;;;;;2.67;2.10;;;;;;;;;;6227131;23;20063;-82
2023/10/06 09:59:55;;;;;;;2.17;1.95;;;;;;;;;;6226363;23;20190;-82
2023/10/06 10:02:23;;;;;;;2.13;2.00;;;;;;;;;;6254755;23;20162;-83
2023/10/06 10:12:19;;;;;;;2.90;2.28;;;;;;;;;;6215355;23;20028;-83
2023/10/06 10:14:52;;;;;;;2.20;1.98;;;;;;;;;;6251027;23;20024;-83
2023/10/06 10:17:24;;;;;;;2.15;1.90;;;;;;;;;;6256665;23;20023;-82
2023/10/06 10:44:18;;;;;;;3.17;2.08;;;;;;;;;;6225516;23;20139;-82
2023/10/06 11:25:27;;;;;;;3.15;2.38;;;;;;;;;;6214590;23;20024;-82
2023/10/06 11:28:02;;;;;;;3.80;3.22;;;;;;;;;;6213651;23;20044;-83
2023/10/06 11:30:33;;;;;;;1.35;1.35;;;;;;;;;;6255519;23;20104;-83
2023/10/06 11:47:50;;;;;;;4.40;2.80;;;;;;;;;;6203526;23;20024;-83
2023/10/06 11:50:24;;;;;;;2.08;1.98;;;;;;;;;;6255710;22;20081;-82
2023/10/06 11:52:51;;;;;;;1.75;1.65;;;;;;;;;;6228214;23;20047;-83
2023/10/06 11:55:21;;;;;;;2.15;2.03;;;;;;;;;;6259989;23;20012;-81
2023/10/06 13:17:33;;;;;;;1.10;1.10;;;;;;;;;;6242129;22;20108;-81
2023/10/06 13:33:14;;;;;;;1.10;1.00;;;;;;;;;;6272537;22;20077;-84
2023/10/06 13:39:44;;;;;;;0.80;0.80;;;;;;;;;;6232681;22;20055;-78
2023/10/06 14:03:37;;;;;;;0.80;0.80;;;;;;;;;;6199606;23;20016;-78
2023/10/06 14:06:20;;;;;;;1.85;1.75;;;;;;;;;;6223827;23;20519;-82
2023/10/06 14:46:24;;;;;;;1.25;1.15;;;;;;;;;;6218514;23;20024;-80
2023/10/06 14:48:53;;;;;;;0.73;0.73;;;;;;;;;;6214834;23;20047;-80
2023/10/06 14:51:25;;;;;;;2.65;1.00;;;;;;;;;;6241388;23;20027;-79
2023/10/06 14:53:53;;;;;;;0.80;0.80;;;;;;;;;;6237095;23;20028;-79
2023/10/06 14:56:22;;;;;;;1.73;1.63;;;;;;;;;;6239693;23;20537;-80
2023/10/06 15:13:26;;;;;;;4.85;1.30;;;;;;;;;;6219013;23;20027;-78
2023/10/06 15:15:54;;;;;;;1.77;1.35;;;;;;;;;;6213029;23;20021;-77
2023/10/06 15:32:24;;;;;;;1.27;1.15;;;;;;;;;;6201546;23;20027;-78
2023/10/06 15:34:52;;;;;;;;;;;;;;;;;;6239291;23;20020;-78
2023/10/06 15:37:21;;;;;;;0.93;0.88;;;;;;;;;;6213488;23;20371;-78
2023/10/06 15:39:51;;;;;;;0.90;0.90;;;;;;;;;;6238043;23;20035;-78
2023/10/06 15:42:46;;;;;;;0.65;0.65;;;;;;;;;;6241008;23;20134;-79
2023/10/06 15:45:18;;;;;;;0.68;0.68;;;;;;;;;;6212023;23;20024;-78
2023/10/06 15:47:47;;;;;;;0.80;0.80;;;;;;;;;;6212406;23;20326;-77
2023/10/06 15:50:17;;;;;;;0.82;0.70;;;;;;;;;;6239204;23;20081;-79
2023/10/06 16:02:43;;;;;;;0.80;0.80;;;;;;;;;;6213908;23;20023;-77
2023/10/06 16:05:14;;;;;;;1.10;1.10;;;;;;;;;;6212252;23;20457;-77
2023/10/06 16:07:43;;;;;;;0.88;0.88;;;;;;;;;;6237054;23;20028;-77
2023/10/06 16:49:48;;;;;;;1.35;1.25;;;;;;;;;;6218622;23;20028;-76
2023/10/06 16:52:15;;;;;;;8.30;1.83;;;;;;;;;;6239225;23;20031;-78
2023/10/06 16:54:44;;;;;;;1.00;1.00;;;;;;;;;;6212462;23;20082;-78
2023/10/06 16:57:15;;;;;;;0.90;0.90;;;;;;;;;;6237667;23;20350;-77
2023/10/06 16:59:43;;;;;;;1.13;1.10;;;;;;;;;;6238215;23;20048;-77
2023/10/06 17:02:17;;;;;;;0.98;0.90;;;;;;;;;;6236329;23;20034;-76
2023/10/06 17:04:46;;;;;;;1.60;1.50;;;;;;;;;;6236206;23;20048;-78
2023/10/06 17:07:15;;;;;;;1.00;1.00;;;;;;;;;;6237616;23;20051;-77
2023/10/06 17:09:43;;;;;;;3.05;1.15;;;;;;;;;;6239143;23;20024;-78
2023/10/06 17:12:13;;;;;;;3.33;1.63;;;;;;;;;;6234620;23;20055;-72
2023/10/06 17:14:41;;;;;;;1.20;1.17;;;;;;;;;;6236770;23;20448;-70
2023/10/06 17:42:04;;;;;;;1.83;1.60;;;;;;;;;;6193451;22;20035;-81
2023/10/06 17:44:32;;;;;;;1.02;1.02;;;;;;;;;;6196247;22;20460;-81
2023/10/06 17:47:01;;;;;;;1.45;1.35;;;;;;;;;;6242409;23;20093;-81
2023/10/06 17:49:31;;;;;;;1.85;1.73;;;;;;;;;;6216336;23;20028;-80
2023/10/06 17:52:01;;;;;;;1.77;1.30;;;;;;;;;;6215955;22;20470;-79
2023/10/06 18:12:29;;;;;;;2.35;1.63;;;;;;;;;;6215255;23;20028;-80
2023/10/06 18:14:59;;;;;;;2.13;2.00;;;;;;;;;;6184739;23;20025;-80
2023/10/06 18:17:31;;;;;;;2.28;1.90;;;;;;;;;;6207100;23;20028;-78
2023/10/06 18:20:22;;;;;;;6.68;1.55;;;;;;;;;;6208089;23;20027;-79
2023/10/06 18:33:21;;;;;;;2.35;2.08;;;;;;;;;;6206601;23;20028;-77
2023/10/06 18:35:52;;;;;;;1.80;1.70;;;;;;;;;;6212323;23;20107;-78
2023/10/06 18:59:40;;;;;;;1.50;1.40;;;;;;;;;;6182112;23;20025;-77
2023/10/06 19:02:11;;;;;;;1.75;1.25;;;;;;;;;;6201934;23;20904;-77
2023/10/06 19:04:43;;;;;;;1.23;1.20;;;;;;;;;;6178647;23;20039;-77
2023/10/06 19:07:17;;;;;;;1.67;1.52;;;;;;;;;;6208741;23;20052;-78
2023/10/06 19:09:49;;;;;;;4.25;1.42;;;;;;;;;;6210378;23;20417;-78
2023/10/06 19:12:48;;;;;;;1.15;1.10;;;;;;;;;;6177882;23;20024;-78
2023/10/06 19:15:17;;;;;;;1.50;1.40;;;;;;;;;;6159316;23;20024;-78
2023/10/06 19:17:47;;;;;;;4.45;1.52;;;;;;;;;;6183164;23;20055;-78
2023/10/06 19:20:15;;;;;;;1.30;1.30;;;;;;;;;;6199902;23;20025;-79
2023/10/06 19:22:43;;;;;;;1.58;1.48;;;;;;;;;;6182809;23;20538;-79
2023/10/06 19:46:22;;;;;;;1.63;1.60;;;;;;;;;;6187730;23;20035;-78
2023/10/06 19:48:54;;;;;;;2.17;1.17;;;;;;;;;;6201564;23;20449;-78
2023/10/06 19:55:02;;;;;;;1.67;1.58;;;;;;;;;;6188166;23;20137;-78
2023/10/06 19:57:31;;;;;;;1.52;1.42;;;;;;;;;;6176606;23;20086;-78
2023/10/06 20:00:08;;;;;;;4.22;1.30;;;;;;;;;;6204636;23;20108;-77
2023/10/06 20:16:21;;;;;;;1.35;1.33;;;;;;;;;;6194961;23;20024;-81
2023/10/06 20:18:48;;;;;;;1.60;1.50;;;;;;;;;;6212545;23;20025;-81
2023/10/06 20:21:17;;;;;;;1.67;1.58;;;;;;;;;;6140023;23;20048;-79
2023/10/06 20:23:50;;;;;;;2.25;1.27;;;;;;;;;;6194287;23;21193;-84
2023/10/06 20:26:17;;;;;;;;;;;;;;;;;;6221990;23;20107;-81
2023/10/06 20:32:28;;;;;;;1.92;1.60;;;;;;;;;;6167151;23;20357;-81
2023/10/06 20:34:58;;;;;;;1.77;1.40;;;;;;;;;;6211456;23;20107;-80
2023/10/06 20:37:27;;;;;;;2.97;1.50;;;;;;;;;;6186297;23;20103;-82
2023/10/06 20:39:57;;;;;;;2.75;1.65;;;;;;;;;;6219533;23;20020;-81
2023/10/06 21:16:51;;;;;;;2.20;2.00;;;;;;;;;;6179677;23;20067;-77
2023/10/06 21:19:19;;;;;;;3.45;1.48;;;;;;;;;;6179991;23;20025;-76
2023/10/06 21:32:26;;;;;;;1.83;1.58;;;;;;;;;;6188221;23;20028;-80
2023/10/06 21:34:55;;;;;;;3.30;1.42;;;;;;;;;;6211668;23;20024;-79
2023/10/06 21:37:24;;;;;;;1.65;1.55;;;;;;;;;;6179323;23;20024;-78
2023/10/06 21:39:53;;;;;;;1.38;1.35;;;;;;;;;;6175588;23;20025;-78
